createdAt,value
2022-08-01T06:13:48.520Z,4.73
2022-08-01T06:23:36.527Z,6.18
2022-08-01T06:33:36.402Z,6.90
2022-08-01T06:43:36.351Z,7.49
2022-08-01T06:53:36.724Z,7.64
2022-08-01T07:03:54.337Z,7.33
2022-08-01T07:13:36.625Z,8.44
2022-08-01T07:23:36.610Z,11.65
2022-08-01T07:33:48.990Z,6.94
2022-08-01T07:43:36.503Z,0.00
2022-08-01T07:53:36.468Z,0.00
2022-08-01T08:03:36.375Z,0.00
2022-08-01T08:13:36.445Z,9.89
2022-08-01T08:23:43.222Z,14.53
2022-08-01T08:33:36.566Z,10.74
2022-08-01T08:43:36.543Z,11.02
2022-08-01T08:53:36.598Z,0.00
2022-08-01T09:03:36.500Z,13.40
2022-08-01T09:13:36.633Z,14.26
2022-08-01T09:23:36.518Z,11.18
2022-08-01T09:33:37.044Z,18.22
2022-08-01T09:43:36.407Z,12.12
2022-08-01T09:53:38.024Z,0.00
2022-08-01T10:03:36.685Z,0.00
2022-08-01T10:13:36.970Z,0.00
2022-08-01T10:23:40.141Z,0.00
2022-08-01T10:33:51.062Z,0.00
2022-08-01T10:43:36.635Z,0.00
2022-08-01T10:53:42.706Z,0.00
2022-08-01T11:03:56.069Z,0.00
2022-08-01T11:13:36.446Z,0.00
2022-08-01T11:23:36.618Z,0.00
2022-08-01T11:33:36.614Z,0.00
2022-08-01T11:43:36.582Z,0.00
2022-08-01T11:53:36.724Z,0.00
2022-08-01T12:03:36.627Z,0.00
2022-08-01T12:13:36.636Z,0.00
2022-08-01T12:23:36.580Z,0.00
2022-08-01T12:33:36.687Z,0.00
2022-08-01T12:43:36.613Z,0.00
2022-08-01T12:53:41.046Z,0.00
2022-08-01T13:03:36.671Z,0.00
2022-08-01T13:13:36.762Z,0.00
2022-08-01T13:24:01.404Z,0.00
2022-08-01T13:33:36.729Z,0.00
2022-08-01T13:43:58.540Z,0.00
2022-08-01T13:53:36.642Z,0.00
2022-08-01T14:03:36.784Z,0.00
2022-08-01T14:13:37.059Z,0.00
2022-08-01T14:23:36.623Z,0.00
2022-08-01T14:33:36.783Z,0.00
2022-08-01T14:43:36.758Z,0.00
2022-08-01T14:53:36.828Z,0.00
2022-08-01T15:03:37.004Z,0.00
2022-08-01T15:13:40.561Z,0.00
2022-08-01T15:23:37.038Z,0.00
2022-08-01T15:33:37.103Z,0.00
2022-08-01T15:43:41.563Z,0.00
2022-08-01T15:53:37.091Z,0.00
2022-08-01T16:03:37.079Z,0.00
2022-08-01T16:13:36.980Z,0.00
2022-08-01T16:23:37.210Z,0.00
2022-08-01T16:33:45.598Z,0.00
2022-08-01T16:43:36.943Z,0.00
2022-08-01T16:53:37.207Z,0.00
2022-08-01T17:03:51.568Z,0.00
2022-08-01T17:13:37.139Z,0.00
2022-08-01T17:23:37.054Z,0.00
2022-08-01T17:33:45.063Z,0.00
2022-08-01T17:43:36.931Z,0.00
2022-08-01T17:53:37.038Z,0.00
2022-08-01T18:03:40.964Z,0.16
2022-08-01T18:13:40.948Z,10.76
2022-08-01T18:23:37.013Z,6.84
2022-08-01T18:33:37.163Z,6.04
2022-08-01T18:43:37.026Z,8.24
2022-08-01T18:53:37.193Z,6.07
2022-08-01T19:03:42.266Z,5.31
2022-08-01T19:13:37.322Z,7.41
